Estación de Casablanca

Ultimos registro cada 15 minutos 40
Estación Fecha / Hora Temperatura Humedad Lluvia Velocidad Dirección Radiación Presion
40 Casablanca 10-05-2026 09:45 7,6 99,9 0 0 147 356,9 984,5
39 Casablanca 10-05-2026 09:30 6 100 0 0 147 319,4 984,5
38 Casablanca 10-05-2026 09:15 4,5 100 0 0 160 194,4 984,6
37 Casablanca 10-05-2026 09:00 3,3 100 0 0 170 224,4 984,5
36 Casablanca 10-05-2026 08:45 2,5 100 0 0 243 186,9 984,7
35 Casablanca 10-05-2026 08:30 1,4 100 0 0 260 61,9 984,6
34 Casablanca 10-05-2026 08:15 0,2 100 0 0 260 100,6 984,4
33 Casablanca 10-05-2026 08:00 -0,6 100 0 0 260 59,4 984,4
32 Casablanca 10-05-2026 07:45 -1 100 0 0 260 13,1 984,4
31 Casablanca 10-05-2026 07:30 -0,6 100 0 0 260 3,1 984,3
30 Casablanca 10-05-2026 07:15 -0,8 100 0 0 260 0,6 984,4
29 Casablanca 10-05-2026 07:00 -0,8 100 0 0 260 0,6 984,4
28 Casablanca 10-05-2026 06:45 -0,7 100 0 0 260 0,6 984,4
27 Casablanca 10-05-2026 06:30 -0,7 100 0 0 260 0,6 984,3
26 Casablanca 10-05-2026 06:15 -0,9 100 0 0 260 0,6 984,2
25 Casablanca 10-05-2026 06:00 -0,6 100 0 0 260 0,6 984,2
24 Casablanca 10-05-2026 05:45 -0,5 100 0 0 260 0,6 984,1
23 Casablanca 10-05-2026 05:30 -0,3 100 0 0 260 0,6 984
22 Casablanca 10-05-2026 05:15 -0,6 100 0 0 260 0,6 984
21 Casablanca 10-05-2026 05:00 -0,3 100 0 0 260 0,6 984
20 Casablanca 10-05-2026 04:45 0,2 100 0 0 260 0,6 983,9
19 Casablanca 10-05-2026 04:30 0,2 100 0 0 260 0,6 983,8
18 Casablanca 10-05-2026 04:15 0,4 100 0 0 260 0,6 984
17 Casablanca 10-05-2026 04:00 0,5 100 0 0 260 0,6 984
16 Casablanca 10-05-2026 03:45 0,4 100 0 0 260 0,6 984,1
15 Casablanca 10-05-2026 03:30 1 100 0 0 260 0,6 984,2
14 Casablanca 10-05-2026 03:15 0,6 100 0 0 260 0,6 984,5
13 Casablanca 10-05-2026 03:00 0,5 99,9 0 0 260 0,6 984,5
12 Casablanca 10-05-2026 02:45 1,8 100 0 0 260 0,6 984,8
11 Casablanca 10-05-2026 02:30 1,2 100 0 0 260 0,6 985
10 Casablanca 10-05-2026 02:15 0,6 99,8 0 0 260 0,6 985
9 Casablanca 10-05-2026 02:00 1,4 99,6 0 0 260 0,6 985,1
8 Casablanca 10-05-2026 01:45 1,3 99,5 0 0 260 0,6 985
7 Casablanca 10-05-2026 01:30 1,8 99,5 0 0 260 0,6 985,1
6 Casablanca 10-05-2026 01:15 1,9 99,6 0 0 260 0,6 985,2
5 Casablanca 10-05-2026 01:00 2,6 99,6 0 0 260 0,6 985,3
4 Casablanca 10-05-2026 00:45 2,5 99,1 0 0 260 0,6 985,3
3 Casablanca 10-05-2026 00:30 2,6 98,7 0 0 260 0,6 985,4
2 Casablanca 10-05-2026 00:15 2,3 98,4 0 0 260 0,6 985,4
1 Casablanca 10-05-2026 00:00 2,6 98,1 0 0 260 0,6 985,4